sensor_id;sensor_type;location;lat;lon;timestamp;P1;durP1;ratioP1;P2;durP2;ratioP2
9034;SDS011;4552;43.422;24.592;2023-04-01T02:09:16;6.87;;;4.37;;
9034;SDS011;4552;43.422;24.592;2023-04-01T02:11:45;5.83;;;4.20;;
9034;SDS011;4552;43.422;24.592;2023-04-01T02:14:16;5.57;;;4.70;;
9034;SDS011;4552;43.422;24.592;2023-04-01T02:16:47;6.90;;;5.07;;
9034;SDS011;4552;43.422;24.592;2023-04-01T02:19:18;13.07;;;5.53;;
9034;SDS011;4552;43.422;24.592;2023-04-01T03:14:12;5.73;;;5.07;;
9034;SDS011;4552;43.422;24.592;2023-04-01T03:16:39;6.30;;;4.60;;
9034;SDS011;4552;43.422;24.592;2023-04-01T03:19:06;5.13;;;4.57;;
9034;SDS011;4552;43.422;24.592;2023-04-01T03:21:33;5.67;;;5.13;;
9034;SDS011;4552;43.422;24.592;2023-04-01T03:24:00;9.77;;;5.70;;
9034;SDS011;4552;43.422;24.592;2023-04-01T03:26:27;5.87;;;5.27;;
9034;SDS011;4552;43.422;24.592;2023-04-01T03:28:54;8.50;;;5.43;;
9034;SDS011;4552;43.422;24.592;2023-04-01T03:31:23;7.57;;;5.20;;
9034;SDS011;4552;43.422;24.592;2023-04-01T03:33:50;5.23;;;4.67;;
9034;SDS011;4552;43.422;24.592;2023-04-01T03:36:17;6.60;;;5.03;;
9034;SDS011;4552;43.422;24.592;2023-04-01T03:38:44;6.87;;;4.47;;
9034;SDS011;4552;43.422;24.592;2023-04-01T03:41:11;11.37;;;5.63;;
9034;SDS011;4552;43.422;24.592;2023-04-01T03:43:39;7.30;;;4.80;;
9034;SDS011;4552;43.422;24.592;2023-04-01T03:46:06;14.93;;;13.73;;
9034;SDS011;4552;43.422;24.592;2023-04-01T03:48:34;14.67;;;13.50;;
9034;SDS011;4552;43.422;24.592;2023-04-01T03:51:01;15.43;;;14.13;;
9034;SDS011;4552;43.422;24.592;2023-04-01T03:53:32;15.43;;;14.13;;
9034;SDS011;4552;43.422;24.592;2023-04-01T03:56:02;16.27;;;14.60;;
9034;SDS011;4552;43.422;24.592;2023-04-01T03:58:30;14.77;;;13.60;;
9034;SDS011;4552;43.422;24.592;2023-04-01T04:00:57;15.47;;;14.07;;
9034;SDS011;4552;43.422;24.592;2023-04-01T04:03:24;16.40;;;14.80;;
9034;SDS011;4552;43.422;24.592;2023-04-01T04:05:52;15.87;;;14.40;;
9034;SDS011;4552;43.422;24.592;2023-04-01T04:08:20;16.87;;;14.00;;
9034;SDS011;4552;43.422;24.592;2023-04-01T04:10:47;14.77;;;13.13;;
9034;SDS011;4552;43.422;24.592;2023-04-01T04:13:20;11.63;;;10.53;;
9034;SDS011;4552;43.422;24.592;2023-04-01T04:15:47;10.20;;;9.30;;
9034;SDS011;4552;43.422;24.592;2023-04-01T04:18:14;5.70;;;3.63;;
9034;SDS011;4552;43.422;24.592;2023-04-01T04:20:43;7.23;;;3.23;;
9034;SDS011;4552;43.422;24.592;2023-04-01T04:23:13;4.67;;;3.50;;
9034;SDS011;4552;43.422;24.592;2023-04-01T04:25:53;4.00;;;2.73;;
9034;SDS011;4552;43.422;24.592;2023-04-01T04:28:20;6.57;;;4.10;;
9034;SDS011;4552;43.422;24.592;2023-04-01T04:30:47;5.90;;;4.00;;
9034;SDS011;4552;43.422;24.592;2023-04-01T04:33:14;6.23;;;3.77;;
9034;SDS011;4552;43.422;24.592;2023-04-01T04:35:41;5.97;;;4.13;;
9034;SDS011;4552;43.422;24.592;2023-04-01T04:38:08;8.23;;;4.57;;
9034;SDS011;4552;43.422;24.592;2023-04-01T04:40:37;4.57;;;3.90;;
9034;SDS011;4552;43.422;24.592;2023-04-01T04:43:04;5.37;;;3.07;;
9034;SDS011;4552;43.422;24.592;2023-04-01T04:45:31;6.10;;;3.97;;
9034;SDS011;4552;43.422;24.592;2023-04-01T04:47:58;4.53;;;3.30;;
9034;SDS011;4552;43.422;24.592;2023-04-01T05:14:22;3.47;;;2.93;;
9034;SDS011;4552;43.422;24.592;2023-04-01T05:16:49;5.27;;;2.67;;
9034;SDS011;4552;43.422;24.592;2023-04-01T05:19:16;2.53;;;2.17;;
9034;SDS011;4552;43.422;24.592;2023-04-01T05:56:08;2.07;;;1.87;;
9034;SDS011;4552;43.422;24.592;2023-04-01T05:58:35;6.47;;;1.83;;
9034;SDS011;4552;43.422;24.592;2023-04-01T06:01:05;2.43;;;1.97;;
9034;SDS011;4552;43.422;24.592;2023-04-01T06:03:33;2.03;;;1.80;;
9034;SDS011;4552;43.422;24.592;2023-04-01T06:06:00;4.10;;;2.37;;
9034;SDS011;4552;43.422;24.592;2023-04-01T06:08:28;2.67;;;1.80;;
9034;SDS011;4552;43.422;24.592;2023-04-01T06:11:01;4.03;;;1.90;;
9034;SDS011;4552;43.422;24.592;2023-04-01T06:14:00;3.50;;;2.10;;
9034;SDS011;4552;43.422;24.592;2023-04-01T06:16:55;7.00;;;3.87;;
9034;SDS011;4552;43.422;24.592;2023-04-01T06:19:33;7.27;;;4.20;;
9034;SDS011;4552;43.422;24.592;2023-04-01T06:22:19;7.83;;;3.80;;
9034;SDS011;4552;43.422;24.592;2023-04-01T06:37:48;5.17;;;3.53;;
9034;SDS011;4552;43.422;24.592;2023-04-01T06:43:48;9.13;;;3.60;;
9034;SDS011;4552;43.422;24.592;2023-04-01T06:46:23;10.77;;;4.50;;
9034;SDS011;4552;43.422;24.592;2023-04-01T06:49:17;8.67;;;4.50;;
9034;SDS011;4552;43.422;24.592;2023-04-01T06:51:56;5.27;;;3.60;;
9034;SDS011;4552;43.422;24.592;2023-04-01T07:04:35;7.17;;;3.17;;
9034;SDS011;4552;43.422;24.592;2023-04-01T07:07:08;7.38;;;4.03;;
9034;SDS011;4552;43.422;24.592;2023-04-01T07:09:47;10.53;;;4.83;;
9034;SDS011;4552;43.422;24.592;2023-04-01T07:12:18;7.10;;;4.70;;
9034;SDS011;4552;43.422;24.592;2023-04-01T07:15:01;9.90;;;4.83;;
9034;SDS011;4552;43.422;24.592;2023-04-01T07:17:38;8.53;;;4.67;;
9034;SDS011;4552;43.422;24.592;2023-04-01T07:20:20;5.93;;;3.67;;
9034;SDS011;4552;43.422;24.592;2023-04-01T07:22:54;5.90;;;3.43;;
9034;SDS011;4552;43.422;24.592;2023-04-01T07:55:30;8.73;;;2.90;;
9034;SDS011;4552;43.422;24.592;2023-04-01T07:58:04;5.97;;;3.07;;
9034;SDS011;4552;43.422;24.592;2023-04-01T08:00:39;9.10;;;3.43;;
9034;SDS011;4552;43.422;24.592;2023-04-01T08:03:23;4.93;;;2.70;;
9034;SDS011;4552;43.422;24.592;2023-04-01T08:06:00;6.55;;;3.72;;
9034;SDS011;4552;43.422;24.592;2023-04-01T08:08:37;8.40;;;3.77;;
9034;SDS011;4552;43.422;24.592;2023-04-01T08:18:04;13.23;;;5.03;;
9034;SDS011;4552;43.422;24.592;2023-04-01T08:20:41;7.87;;;4.77;;
9034;SDS011;4552;43.422;24.592;2023-04-01T08:23:15;6.73;;;3.00;;
9034;SDS011;4552;43.422;24.592;2023-04-01T08:35:51;5.53;;;3.30;;
9034;SDS011;4552;43.422;24.592;2023-04-01T08:38:23;3.97;;;2.80;;
9034;SDS011;4552;43.422;24.592;2023-04-01T08:40:57;3.97;;;2.40;;
9034;SDS011;4552;43.422;24.592;2023-04-01T08:43:30;3.53;;;2.30;;
9034;SDS011;4552;43.422;24.592;2023-04-01T08:46:20;7.87;;;2.77;;
9034;SDS011;4552;43.422;24.592;2023-04-01T08:49:07;4.97;;;2.43;;
9034;SDS011;4552;43.422;24.592;2023-04-01T08:51:54;2.50;;;1.93;;
9034;SDS011;4552;43.422;24.592;2023-04-01T09:14:56;4.20;;;2.13;;
9034;SDS011;4552;43.422;24.592;2023-04-01T09:20:58;4.00;;;2.23;;
9034;SDS011;4552;43.422;24.592;2023-04-01T09:23:40;3.23;;;1.87;;
9034;SDS011;4552;43.422;24.592;2023-04-01T10:08:17;4.23;;;3.40;;
9034;SDS011;4552;43.422;24.592;2023-04-01T10:14:30;2.60;;;2.40;;
9034;SDS011;4552;43.422;24.592;2023-04-01T10:23:51;3.50;;;2.60;;
9034;SDS011;4552;43.422;24.592;2023-04-01T11:09:16;2.17;;;1.90;;
9034;SDS011;4552;43.422;24.592;2023-04-01T11:12:08;2.50;;;2.03;;
9034;SDS011;4552;43.422;24.592;2023-04-01T11:54:12;6.07;;;2.37;;
9034;SDS011;4552;43.422;24.592;2023-04-01T11:56:54;3.97;;;2.47;;
9034;SDS011;4552;43.422;24.592;2023-04-01T11:59:44;6.43;;;2.60;;
9034;SDS011;4552;43.422;24.592;2023-04-01T12:02:24;4.80;;;2.60;;
9034;SDS011;4552;43.422;24.592;2023-04-01T12:05:04;8.40;;;2.47;;
9034;SDS011;4552;43.422;24.592;2023-04-01T12:07:57;3.50;;;2.45;;
9034;SDS011;4552;43.422;24.592;2023-04-01T12:20:44;3.90;;;2.20;;
9034;SDS011;4552;43.422;24.592;2023-04-01T12:23:28;2.73;;;2.10;;
9034;SDS011;4552;43.422;24.592;2023-04-01T12:26:19;4.73;;;2.50;;
9034;SDS011;4552;43.422;24.592;2023-04-01T12:29:18;6.97;;;2.53;;
9034;SDS011;4552;43.422;24.592;2023-04-01T12:32:02;5.20;;;2.63;;
9034;SDS011;4552;43.422;24.592;2023-04-01T12:34:44;3.33;;;2.27;;
9034;SDS011;4552;43.422;24.592;2023-04-01T12:37:26;3.60;;;2.47;;
9034;SDS011;4552;43.422;24.592;2023-04-01T12:53:11;6.73;;;3.17;;
9034;SDS011;4552;43.422;24.592;2023-04-01T12:55:51;5.43;;;2.67;;
9034;SDS011;4552;43.422;24.592;2023-04-01T13:01:34;3.43;;;2.20;;
9034;SDS011;4552;43.422;24.592;2023-04-01T13:04:38;4.73;;;2.90;;
9034;SDS011;4552;43.422;24.592;2023-04-01T13:07:24;5.23;;;2.60;;
9034;SDS011;4552;43.422;24.592;2023-04-01T13:10:05;8.27;;;2.80;;
9034;SDS011;4552;43.422;24.592;2023-04-01T13:12:45;4.83;;;2.60;;
9034;SDS011;4552;43.422;24.592;2023-04-01T13:15:26;5.27;;;2.90;;
9034;SDS011;4552;43.422;24.592;2023-04-01T13:17:59;6.33;;;2.70;;
9034;SDS011;4552;43.422;24.592;2023-04-01T13:20:44;3.50;;;2.07;;
9034;SDS011;4552;43.422;24.592;2023-04-01T13:23:23;4.07;;;2.37;;
9034;SDS011;4552;43.422;24.592;2023-04-01T13:26:00;2.90;;;2.13;;
9034;SDS011;4552;43.422;24.592;2023-04-01T13:28:34;3.23;;;2.23;;
9034;SDS011;4552;43.422;24.592;2023-04-01T13:31:06;3.80;;;2.57;;
9034;SDS011;4552;43.422;24.592;2023-04-01T13:33:41;4.97;;;3.07;;
9034;SDS011;4552;43.422;24.592;2023-04-01T13:36:17;5.67;;;4.17;;
9034;SDS011;4552;43.422;24.592;2023-04-01T13:38:58;9.43;;;4.03;;
9034;SDS011;4552;43.422;24.592;2023-04-01T13:48:27;6.40;;;3.97;;
9034;SDS011;4552;43.422;24.592;2023-04-01T13:51:17;5.80;;;4.07;;
9034;SDS011;4552;43.422;24.592;2023-04-01T13:54:07;7.37;;;5.37;;
9034;SDS011;4552;43.422;24.592;2023-04-01T14:53:41;8.53;;;4.90;;
9034;SDS011;4552;43.422;24.592;2023-04-01T14:56:11;6.37;;;4.67;;
9034;SDS011;4552;43.422;24.592;2023-04-01T14:58:42;5.73;;;4.27;;
9034;SDS011;4552;43.422;24.592;2023-04-01T15:01:15;9.17;;;5.23;;
9034;SDS011;4552;43.422;24.592;2023-04-01T15:04:02;7.27;;;5.33;;
9034;SDS011;4552;43.422;24.592;2023-04-01T15:06:59;5.93;;;4.93;;
9034;SDS011;4552;43.422;24.592;2023-04-01T15:09:36;8.20;;;5.67;;
9034;SDS011;4552;43.422;24.592;2023-04-01T15:29:41;6.90;;;4.20;;
9034;SDS011;4552;43.422;24.592;2023-04-01T15:32:26;6.47;;;3.60;;
9034;SDS011;4552;43.422;24.592;2023-04-01T15:35:09;6.57;;;4.60;;
9034;SDS011;4552;43.422;24.592;2023-04-01T15:37:51;9.47;;;4.10;;
9034;SDS011;4552;43.422;24.592;2023-04-01T16:20:55;4.03;;;2.43;;
9034;SDS011;4552;43.422;24.592;2023-04-01T16:23:29;4.07;;;2.80;;
9034;SDS011;4552;43.422;24.592;2023-04-01T16:26:05;4.43;;;2.97;;
9034;SDS011;4552;43.422;24.592;2023-04-01T16:28:36;2.60;;;2.27;;
9034;SDS011;4552;43.422;24.592;2023-04-01T16:31:09;4.57;;;2.77;;
9034;SDS011;4552;43.422;24.592;2023-04-01T16:33:44;2.17;;;1.97;;
9034;SDS011;4552;43.422;24.592;2023-04-01T16:36:22;6.63;;;2.20;;
9034;SDS011;4552;43.422;24.592;2023-04-01T16:38:57;3.33;;;2.57;;
9034;SDS011;4552;43.422;24.592;2023-04-01T16:41:36;4.80;;;2.27;;
9034;SDS011;4552;43.422;24.592;2023-04-01T16:44:10;2.60;;;2.20;;
9034;SDS011;4552;43.422;24.592;2023-04-01T16:46:45;3.40;;;2.70;;
9034;SDS011;4552;43.422;24.592;2023-04-01T16:49:27;5.33;;;2.47;;
9034;SDS011;4552;43.422;24.592;2023-04-01T16:52:03;4.53;;;2.30;;
9034;SDS011;4552;43.422;24.592;2023-04-01T16:54:41;3.50;;;2.50;;
9034;SDS011;4552;43.422;24.592;2023-04-01T16:57:18;2.10;;;1.90;;
9034;SDS011;4552;43.422;24.592;2023-04-01T16:59:54;3.13;;;2.00;;
9034;SDS011;4552;43.422;24.592;2023-04-01T17:02:26;3.17;;;2.20;;
9034;SDS011;4552;43.422;24.592;2023-04-01T17:04:58;2.30;;;2.10;;
9034;SDS011;4552;43.422;24.592;2023-04-01T17:07:35;2.40;;;1.70;;
9034;SDS011;4552;43.422;24.592;2023-04-01T17:13:14;2.40;;;1.65;;
9034;SDS011;4552;43.422;24.592;2023-04-01T17:15:55;2.27;;;2.00;;
9034;SDS011;4552;43.422;24.592;2023-04-01T17:18:32;4.50;;;1.90;;
9034;SDS011;4552;43.422;24.592;2023-04-01T17:22:16;1.97;;;1.77;;
9034;SDS011;4552;43.422;24.592;2023-04-01T17:24:57;2.50;;;2.13;;
9034;SDS011;4552;43.422;24.592;2023-04-01T17:27:38;2.40;;;2.03;;
9034;SDS011;4552;43.422;24.592;2023-04-01T17:30:13;2.83;;;2.00;;
9034;SDS011;4552;43.422;24.592;2023-04-01T17:33:00;2.20;;;2.00;;
9034;SDS011;4552;43.422;24.592;2023-04-01T17:35:42;1.47;;;1.37;;
9034;SDS011;4552;43.422;24.592;2023-04-01T17:38:34;1.60;;;1.37;;
9034;SDS011;4552;43.422;24.592;2023-04-01T17:41:24;1.40;;;1.30;;
9034;SDS011;4552;43.422;24.592;2023-04-01T17:44:01;1.10;;;1.10;;
9034;SDS011;4552;43.422;24.592;2023-04-01T17:46:54;1.37;;;1.30;;
9034;SDS011;4552;43.422;24.592;2023-04-01T17:49:30;1.47;;;1.37;;
9034;SDS011;4552;43.422;24.592;2023-04-01T17:52:05;1.40;;;1.30;;
9034;SDS011;4552;43.422;24.592;2023-04-01T17:54:42;1.30;;;1.20;;
9034;SDS011;4552;43.422;24.592;2023-04-01T17:57:34;1.50;;;1.40;;
9034;SDS011;4552;43.422;24.592;2023-04-01T18:00:14;1.50;;;1.40;;
9034;SDS011;4552;43.422;24.592;2023-04-01T18:02:51;1.30;;;1.27;;
9034;SDS011;4552;43.422;24.592;2023-04-01T18:05:29;1.20;;;1.10;;
9034;SDS011;4552;43.422;24.592;2023-04-01T18:08:15;1.20;;;1.10;;
9034;SDS011;4552;43.422;24.592;2023-04-01T18:24:21;2.00;;;1.40;;
9034;SDS011;4552;43.422;24.592;2023-04-01T18:27:00;1.40;;;1.30;;
9034;SDS011;4552;43.422;24.592;2023-04-01T18:29:35;1.43;;;1.30;;
9034;SDS011;4552;43.422;24.592;2023-04-01T18:32:17;2.27;;;1.80;;
9034;SDS011;4552;43.422;24.592;2023-04-01T18:34:55;1.23;;;1.23;;
9034;SDS011;4552;43.422;24.592;2023-04-01T18:37:28;1.70;;;1.60;;
9034;SDS011;4552;43.422;24.592;2023-04-01T18:40:04;1.70;;;1.60;;
9034;SDS011;4552;43.422;24.592;2023-04-01T18:42:43;1.50;;;1.40;;
9034;SDS011;4552;43.422;24.592;2023-04-01T18:45:21;1.20;;;1.20;;
9034;SDS011;4552;43.422;24.592;2023-04-01T18:47:55;1.60;;;1.50;;
9034;SDS011;4552;43.422;24.592;2023-04-01T18:50:36;1.60;;;1.40;;
9034;SDS011;4552;43.422;24.592;2023-04-01T18:53:13;1.73;;;1.63;;
9034;SDS011;4552;43.422;24.592;2023-04-01T19:02:14;1.30;;;1.20;;
9034;SDS011;4552;43.422;24.592;2023-04-01T19:05:00;1.00;;;1.00;;
9034;SDS011;4552;43.422;24.592;2023-04-01T19:07:43;1.10;;;1.10;;
9034;SDS011;4552;43.422;24.592;2023-04-01T19:10:22;1.30;;;1.20;;
9034;SDS011;4552;43.422;24.592;2023-04-01T19:13:02;1.23;;;1.23;;
9034;SDS011;4552;43.422;24.592;2023-04-01T19:15:44;1.10;;;1.10;;
9034;SDS011;4552;43.422;24.592;2023-04-01T19:18:26;1.10;;;1.10;;
9034;SDS011;4552;43.422;24.592;2023-04-01T19:21:10;1.00;;;1.00;;
9034;SDS011;4552;43.422;24.592;2023-04-01T19:23:48;1.00;;;1.00;;
9034;SDS011;4552;43.422;24.592;2023-04-01T19:26:33;1.27;;;1.17;;
9034;SDS011;4552;43.422;24.592;2023-04-01T19:29:06;1.47;;;1.37;;
9034;SDS011;4552;43.422;24.592;2023-04-01T19:32:05;1.23;;;1.13;;
9034;SDS011;4552;43.422;24.592;2023-04-01T19:34:45;1.20;;;1.20;;
9034;SDS011;4552;43.422;24.592;2023-04-01T19:37:22;1.20;;;1.20;;
9034;SDS011;4552;43.422;24.592;2023-04-01T19:40:02;1.20;;;1.20;;
9034;SDS011;4552;43.422;24.592;2023-04-01T19:42:46;1.40;;;1.30;;
9034;SDS011;4552;43.422;24.592;2023-04-01T19:45:23;1.20;;;1.20;;
9034;SDS011;4552;43.422;24.592;2023-04-01T19:48:02;1.30;;;1.30;;
9034;SDS011;4552;43.422;24.592;2023-04-01T19:50:38;1.20;;;1.20;;
9034;SDS011;4552;43.422;24.592;2023-04-01T19:53:15;1.57;;;1.47;;
9034;SDS011;4552;43.422;24.592;2023-04-01T19:55:50;1.20;;;1.20;;
9034;SDS011;4552;43.422;24.592;2023-04-01T19:58:28;1.50;;;1.40;;
9034;SDS011;4552;43.422;24.592;2023-04-01T20:04:26;1.37;;;1.30;;
9034;SDS011;4552;43.422;24.592;2023-04-01T20:06:59;1.83;;;1.60;;
9034;SDS011;4552;43.422;24.592;2023-04-01T20:09:39;2.47;;;1.67;;
9034;SDS011;4552;43.422;24.592;2023-04-01T20:12:17;1.50;;;1.40;;
9034;SDS011;4552;43.422;24.592;2023-04-01T20:14:59;1.60;;;1.50;;
9034;SDS011;4552;43.422;24.592;2023-04-01T20:17:33;1.10;;;1.10;;
9034;SDS011;4552;43.422;24.592;2023-04-01T20:20:18;1.47;;;1.37;;
9034;SDS011;4552;43.422;24.592;2023-04-01T20:22:55;1.40;;;1.30;;
9034;SDS011;4552;43.422;24.592;2023-04-01T20:32:39;1.30;;;1.30;;
9034;SDS011;4552;43.422;24.592;2023-04-01T20:35:25;1.53;;;1.40;;
9034;SDS011;4552;43.422;24.592;2023-04-01T20:38:15;1.30;;;1.20;;
9034;SDS011;4552;43.422;24.592;2023-04-01T21:04:34;1.33;;;1.30;;
9034;SDS011;4552;43.422;24.592;2023-04-01T21:07:20;1.40;;;1.30;;
9034;SDS011;4552;43.422;24.592;2023-04-01T21:33:51;1.07;;;1.07;;
9034;SDS011;4552;43.422;24.592;2023-04-01T21:36:34;1.20;;;1.20;;
9034;SDS011;4552;43.422;24.592;2023-04-01T21:39:17;1.67;;;1.50;;
9034;SDS011;4552;43.422;24.592;2023-04-01T21:42:02;1.50;;;1.40;;
9034;SDS011;4552;43.422;24.592;2023-04-01T21:44:41;1.50;;;1.40;;
9034;SDS011;4552;43.422;24.592;2023-04-01T21:53:19;1.17;;;1.17;;
9034;SDS011;4552;43.422;24.592;2023-04-01T22:03:07;1.37;;;1.27;;
9034;SDS011;4552;43.422;24.592;2023-04-01T22:06:02;1.40;;;1.30;;
9034;SDS011;4552;43.422;24.592;2023-04-01T22:09:05;1.37;;;1.27;;
9034;SDS011;4552;43.422;24.592;2023-04-01T22:11:53;1.47;;;1.37;;
9034;SDS011;4552;43.422;24.592;2023-04-01T22:14:28;1.50;;;1.40;;
9034;SDS011;4552;43.422;24.592;2023-04-01T22:17:03;1.53;;;1.43;;
9034;SDS011;4552;43.422;24.592;2023-04-01T22:19:43;1.70;;;1.60;;
9034;SDS011;4552;43.422;24.592;2023-04-01T22:22:21;1.50;;;1.40;;
9034;SDS011;4552;43.422;24.592;2023-04-01T22:24:57;2.00;;;1.80;;
9034;SDS011;4552;43.422;24.592;2023-04-01T22:30:55;2.07;;;1.93;;
9034;SDS011;4552;43.422;24.592;2023-04-01T22:33:28;1.60;;;1.50;;
9034;SDS011;4552;43.422;24.592;2023-04-01T22:36:02;1.57;;;1.40;;
9034;SDS011;4552;43.422;24.592;2023-04-01T22:38:47;2.30;;;2.10;;
9034;SDS011;4552;43.422;24.592;2023-04-01T22:41:28;1.53;;;1.43;;
9034;SDS011;4552;43.422;24.592;2023-04-01T22:44:07;1.67;;;1.57;;
9034;SDS011;4552;43.422;24.592;2023-04-01T22:46:52;1.90;;;1.77;;
9034;SDS011;4552;43.422;24.592;2023-04-01T22:49:28;1.87;;;1.60;;
9034;SDS011;4552;43.422;24.592;2023-04-01T22:52:03;1.63;;;1.53;;
9034;SDS011;4552;43.422;24.592;2023-04-01T22:54:39;1.53;;;1.43;;
9034;SDS011;4552;43.422;24.592;2023-04-01T22:57:10;2.00;;;1.80;;
9034;SDS011;4552;43.422;24.592;2023-04-01T22:59:44;1.90;;;1.40;;
9034;SDS011;4552;43.422;24.592;2023-04-01T23:02:18;1.60;;;1.50;;
9034;SDS011;4552;43.422;24.592;2023-04-01T23:04:53;2.07;;;1.40;;
9034;SDS011;4552;43.422;24.592;2023-04-01T23:07:30;1.60;;;1.50;;
9034;SDS011;4552;43.422;24.592;2023-04-01T23:10:14;1.63;;;1.48;;
9034;SDS011;4552;43.422;24.592;2023-04-01T23:12:46;1.50;;;1.40;;
9034;SDS011;4552;43.422;24.592;2023-04-01T23:15:16;1.40;;;1.30;;
9034;SDS011;4552;43.422;24.592;2023-04-01T23:17:52;1.43;;;1.33;;
9034;SDS011;4552;43.422;24.592;2023-04-01T23:20:31;1.50;;;1.40;;
9034;SDS011;4552;43.422;24.592;2023-04-01T23:23:13;1.50;;;1.40;;
9034;SDS011;4552;43.422;24.592;2023-04-01T23:25:49;1.20;;;1.20;;
9034;SDS011;4552;43.422;24.592;2023-04-01T23:34:04;4.30;;;1.50;;
9034;SDS011;4552;43.422;24.592;2023-04-01T23:36:47;2.00;;;1.50;;
9034;SDS011;4552;43.422;24.592;2023-04-01T23:39:20;1.60;;;1.50;;
9034;SDS011;4552;43.422;24.592;2023-04-01T23:41:53;1.40;;;1.30;;
9034;SDS011;4552;43.422;24.592;2023-04-01T23:44:25;1.30;;;1.20;;
9034;SDS011;4552;43.422;24.592;2023-04-01T23:46:55;1.53;;;1.43;;
9034;SDS011;4552;43.422;24.592;2023-04-01T23:49:24;1.50;;;1.37;;
9034;SDS011;4552;43.422;24.592;2023-04-01T23:51:55;1.67;;;1.57;;
9034;SDS011;4552;43.422;24.592;2023-04-01T23:54:29;1.50;;;1.40;;
